Lucerne, Washington
Current Conditions -  °F | °C
As of 12:55 PM on Friday 24 Oct 2014 (Local Time) from KEAT Reporting Station
Clear Clear  
Wind Chill: 51°   Ceiling: Unl
Heat Index: 51°   Visibility: 10mi
Dew Point: 39°   Wind: 6mph
Humidity: 63%   Direction: 270°W
Pressure: 30.06"   Gusts: NA
Location:  47.9044°N, 120.153°W
Report Text: KEAT 241955Z AUTO 27005KT 10SM CLR 11/04 A3006 RMK AO2 SLP184 T01060039
Loading
Personal Weather Stations






























Interactive Weather Map
Tropical Storm Tracking
New forecast layout! Learn more

10-Day Weather Forecast

Advertisements
Track Severe Weather on mobile